sensor_id;sensor_type;location;lat;lon;timestamp;temperature;humidity
4429;DHT22;2227;47.810;8.810;2022-07-06T03:47:05;16.10;99.90
4429;DHT22;2227;47.810;8.810;2022-07-06T03:49:32;16.10;99.90
4429;DHT22;2227;47.810;8.810;2022-07-06T03:51:59;16.10;99.90
4429;DHT22;2227;47.810;8.810;2022-07-06T03:54:26;16.20;99.90
4429;DHT22;2227;47.810;8.810;2022-07-06T03:56:53;16.10;99.90
4429;DHT22;2227;47.810;8.810;2022-07-06T03:59:19;16.10;99.90
4429;DHT22;2227;47.810;8.810;2022-07-06T04:01:47;16.10;99.90
4429;DHT22;2227;47.810;8.810;2022-07-06T04:04:14;16.10;99.90
4429;DHT22;2227;47.810;8.810;2022-07-06T04:06:41;16.20;99.90
4429;DHT22;2227;47.810;8.810;2022-07-06T04:09:08;16.20;99.90
4429;DHT22;2227;47.810;8.810;2022-07-06T04:11:36;16.20;99.90
4429;DHT22;2227;47.810;8.810;2022-07-06T04:14:02;16.20;99.90
4429;DHT22;2227;47.810;8.810;2022-07-06T04:16:29;16.20;99.90
4429;DHT22;2227;47.810;8.810;2022-07-06T04:18:56;16.20;99.90
4429;DHT22;2227;47.810;8.810;2022-07-06T04:21:23;16.20;99.90
4429;DHT22;2227;47.810;8.810;2022-07-06T04:23:50;16.20;99.90
4429;DHT22;2227;47.810;8.810;2022-07-06T04:26:17;16.20;99.90
4429;DHT22;2227;47.810;8.810;2022-07-06T04:28:43;16.20;99.90
4429;DHT22;2227;47.810;8.810;2022-07-06T04:31:10;16.10;99.90
4429;DHT22;2227;47.810;8.810;2022-07-06T04:33:37;16.20;99.90
4429;DHT22;2227;47.810;8.810;2022-07-06T04:36:04;16.20;99.90
4429;DHT22;2227;47.810;8.810;2022-07-06T04:38:31;16.30;99.90
4429;DHT22;2227;47.810;8.810;2022-07-06T04:40:58;16.30;99.90
4429;DHT22;2227;47.810;8.810;2022-07-06T04:43:25;16.40;99.90
4429;DHT22;2227;47.810;8.810;2022-07-06T04:45:51;16.40;99.90
4429;DHT22;2227;47.810;8.810;2022-07-06T04:48:18;16.40;99.90
4429;DHT22;2227;47.810;8.810;2022-07-06T04:50:46;16.50;99.90
4429;DHT22;2227;47.810;8.810;2022-07-06T04:53:13;16.40;99.90
4429;DHT22;2227;47.810;8.810;2022-07-06T04:55:44;16.50;99.90
4429;DHT22;2227;47.810;8.810;2022-07-06T04:58:11;16.60;99.90
4429;DHT22;2227;47.810;8.810;2022-07-06T05:00:38;16.60;99.90
4429;DHT22;2227;47.810;8.810;2022-07-06T05:03:05;16.60;99.90
4429;DHT22;2227;47.810;8.810;2022-07-06T05:05:31;16.60;99.90
4429;DHT22;2227;47.810;8.810;2022-07-06T05:07:58;16.70;99.90
4429;DHT22;2227;47.810;8.810;2022-07-06T05:10:25;16.60;99.90
4429;DHT22;2227;47.810;8.810;2022-07-06T05:12:52;16.70;99.90
4429;DHT22;2227;47.810;8.810;2022-07-06T05:15:20;16.70;99.90
4429;DHT22;2227;47.810;8.810;2022-07-06T05:17:47;16.80;99.90
4429;DHT22;2227;47.810;8.810;2022-07-06T05:20:14;16.80;99.90
4429;DHT22;2227;47.810;8.810;2022-07-06T05:22:40;16.80;99.90
4429;DHT22;2227;47.810;8.810;2022-07-06T05:25:12;16.90;99.90
4429;DHT22;2227;47.810;8.810;2022-07-06T05:27:39;16.90;99.90
4429;DHT22;2227;47.810;8.810;2022-07-06T05:30:06;17.00;99.90
4429;DHT22;2227;47.810;8.810;2022-07-06T05:32:33;17.00;99.90
4429;DHT22;2227;47.810;8.810;2022-07-06T05:34:59;17.10;99.90
4429;DHT22;2227;47.810;8.810;2022-07-06T05:37:46;17.10;99.90
4429;DHT22;2227;47.810;8.810;2022-07-06T05:40:13;17.20;99.90
4429;DHT22;2227;47.810;8.810;2022-07-06T05:45:10;17.30;99.90
4429;DHT22;2227;47.810;8.810;2022-07-06T05:47:37;17.30;99.80
4429;DHT22;2227;47.810;8.810;2022-07-06T05:50:23;17.40;99.90
4429;DHT22;2227;47.810;8.810;2022-07-06T05:52:58;17.50;99.60
4429;DHT22;2227;47.810;8.810;2022-07-06T05:55:26;17.60;99.70
4429;DHT22;2227;47.810;8.810;2022-07-06T05:57:53;17.70;99.70
4429;DHT22;2227;47.810;8.810;2022-07-06T06:00:21;17.70;99.50
4429;DHT22;2227;47.810;8.810;2022-07-06T06:02:48;17.90;99.40
4429;DHT22;2227;47.810;8.810;2022-07-06T06:05:15;17.90;99.40
4429;DHT22;2227;47.810;8.810;2022-07-06T06:07:50;18.10;99.10
4429;DHT22;2227;47.810;8.810;2022-07-06T06:10:18;18.10;98.90
4429;DHT22;2227;47.810;8.810;2022-07-06T06:12:45;18.30;98.80
4429;DHT22;2227;47.810;8.810;2022-07-06T06:15:12;18.50;98.70
4429;DHT22;2227;47.810;8.810;2022-07-06T06:17:39;18.60;98.40
4429;DHT22;2227;47.810;8.810;2022-07-06T06:20:08;18.80;98.10
4429;DHT22;2227;47.810;8.810;2022-07-06T06:22:51;18.90;97.70
4429;DHT22;2227;47.810;8.810;2022-07-06T06:25:21;18.90;97.60
4429;DHT22;2227;47.810;8.810;2022-07-06T06:27:48;18.90;97.80
4429;DHT22;2227;47.810;8.810;2022-07-06T06:30:15;19.00;98.00
4429;DHT22;2227;47.810;8.810;2022-07-06T06:32:41;19.10;98.00
4429;DHT22;2227;47.810;8.810;2022-07-06T06:35:08;19.20;97.60
4429;DHT22;2227;47.810;8.810;2022-07-06T06:37:35;19.30;97.50
4429;DHT22;2227;47.810;8.810;2022-07-06T06:40:03;19.30;97.60
4429;DHT22;2227;47.810;8.810;2022-07-06T06:42:30;19.40;97.60
4429;DHT22;2227;47.810;8.810;2022-07-06T06:44:57;19.60;97.50
4429;DHT22;2227;47.810;8.810;2022-07-06T06:47:24;19.70;97.20
4429;DHT22;2227;47.810;8.810;2022-07-06T06:49:51;19.80;96.20
4429;DHT22;2227;47.810;8.810;2022-07-06T06:52:17;19.80;95.80
4429;DHT22;2227;47.810;8.810;2022-07-06T06:55:04;19.90;95.70
4429;DHT22;2227;47.810;8.810;2022-07-06T06:57:31;20.00;95.10
4429;DHT22;2227;47.810;8.810;2022-07-06T06:59:58;20.00;94.90
4429;DHT22;2227;47.810;8.810;2022-07-06T07:02:25;20.00;95.00
4429;DHT22;2227;47.810;8.810;2022-07-06T07:04:52;20.00;95.10
4429;DHT22;2227;47.810;8.810;2022-07-06T07:07:18;19.90;95.10
4429;DHT22;2227;47.810;8.810;2022-07-06T07:09:45;20.00;95.20
4429;DHT22;2227;47.810;8.810;2022-07-06T07:12:12;20.10;95.40
4429;DHT22;2227;47.810;8.810;2022-07-06T07:14:41;20.10;95.10
4429;DHT22;2227;47.810;8.810;2022-07-06T07:17:08;20.20;94.50
4429;DHT22;2227;47.810;8.810;2022-07-06T07:19:35;20.10;94.60
4429;DHT22;2227;47.810;8.810;2022-07-06T07:22:02;20.10;94.90
4429;DHT22;2227;47.810;8.810;2022-07-06T07:24:29;20.10;94.80
4429;DHT22;2227;47.810;8.810;2022-07-06T07:26:55;20.20;95.50
4429;DHT22;2227;47.810;8.810;2022-07-06T07:29:22;20.30;95.30
4429;DHT22;2227;47.810;8.810;2022-07-06T07:31:49;20.30;94.80
4429;DHT22;2227;47.810;8.810;2022-07-06T07:34:16;20.30;94.60
4429;DHT22;2227;47.810;8.810;2022-07-06T07:36:43;20.40;95.00
4429;DHT22;2227;47.810;8.810;2022-07-06T07:39:10;20.50;95.20
4429;DHT22;2227;47.810;8.810;2022-07-06T07:41:37;20.50;94.80
4429;DHT22;2227;47.810;8.810;2022-07-06T07:44:04;20.60;94.70
4429;DHT22;2227;47.810;8.810;2022-07-06T07:46:31;20.70;94.80
4429;DHT22;2227;47.810;8.810;2022-07-06T07:48:58;20.70;94.20
4429;DHT22;2227;47.810;8.810;2022-07-06T07:51:24;20.60;94.20
4429;DHT22;2227;47.810;8.810;2022-07-06T07:53:51;20.60;94.30
4429;DHT22;2227;47.810;8.810;2022-07-06T07:56:18;20.70;94.90
4429;DHT22;2227;47.810;8.810;2022-07-06T07:58:45;20.80;94.90
4429;DHT22;2227;47.810;8.810;2022-07-06T08:01:11;20.90;94.40
4429;DHT22;2227;47.810;8.810;2022-07-06T08:03:38;21.20;94.10
4429;DHT22;2227;47.810;8.810;2022-07-06T08:06:05;21.20;94.30
4429;DHT22;2227;47.810;8.810;2022-07-06T08:08:32;21.30;93.60
4429;DHT22;2227;47.810;8.810;2022-07-06T08:10:59;21.30;93.30
4429;DHT22;2227;47.810;8.810;2022-07-06T08:13:44;21.40;93.60
4429;DHT22;2227;47.810;8.810;2022-07-06T08:16:11;21.50;93.00
4429;DHT22;2227;47.810;8.810;2022-07-06T08:18:38;21.60;92.90
4429;DHT22;2227;47.810;8.810;2022-07-06T08:21:05;21.70;92.80
4429;DHT22;2227;47.810;8.810;2022-07-06T08:23:50;21.80;92.40
4429;DHT22;2227;47.810;8.810;2022-07-06T08:26:17;21.80;92.20
4429;DHT22;2227;47.810;8.810;2022-07-06T08:28:44;21.80;91.80
4429;DHT22;2227;47.810;8.810;2022-07-06T08:31:11;21.90;91.80
4429;DHT22;2227;47.810;8.810;2022-07-06T08:33:58;22.00;92.10
4429;DHT22;2227;47.810;8.810;2022-07-06T08:36:26;22.20;91.30
4429;DHT22;2227;47.810;8.810;2022-07-06T08:38:52;22.30;90.90
4429;DHT22;2227;47.810;8.810;2022-07-06T08:41:23;22.40;90.80
4429;DHT22;2227;47.810;8.810;2022-07-06T08:43:52;22.50;90.00
4429;DHT22;2227;47.810;8.810;2022-07-06T08:46:20;22.60;86.70
4429;DHT22;2227;47.810;8.810;2022-07-06T08:48:48;22.60;86.40
4429;DHT22;2227;47.810;8.810;2022-07-06T08:51:15;22.60;87.40
4429;DHT22;2227;47.810;8.810;2022-07-06T08:53:42;22.70;86.70
4429;DHT22;2227;47.810;8.810;2022-07-06T08:56:10;22.70;86.90
4429;DHT22;2227;47.810;8.810;2022-07-06T08:58:37;23.00;86.20
4429;DHT22;2227;47.810;8.810;2022-07-06T09:01:09;23.20;85.60
4429;DHT22;2227;47.810;8.810;2022-07-06T09:03:43;23.40;83.50
4429;DHT22;2227;47.810;8.810;2022-07-06T09:06:15;23.40;80.30
4429;DHT22;2227;47.810;8.810;2022-07-06T09:08:43;23.40;81.50
4429;DHT22;2227;47.810;8.810;2022-07-06T09:11:10;23.40;82.00
4429;DHT22;2227;47.810;8.810;2022-07-06T09:13:37;23.60;80.80
4429;DHT22;2227;47.810;8.810;2022-07-06T09:16:11;23.80;78.20
4429;DHT22;2227;47.810;8.810;2022-07-06T09:18:58;24.00;77.50
4429;DHT22;2227;47.810;8.810;2022-07-06T09:21:27;23.90;77.50
4429;DHT22;2227;47.810;8.810;2022-07-06T09:23:58;23.90;77.50
4429;DHT22;2227;47.810;8.810;2022-07-06T09:26:26;24.00;76.70
4429;DHT22;2227;47.810;8.810;2022-07-06T09:28:55;24.00;78.00
4429;DHT22;2227;47.810;8.810;2022-07-06T09:31:22;24.20;77.30
4429;DHT22;2227;47.810;8.810;2022-07-06T09:36:38;24.70;76.30
4429;DHT22;2227;47.810;8.810;2022-07-06T09:41:52;25.00;74.80
4429;DHT22;2227;47.810;8.810;2022-07-06T09:46:49;25.40;76.50
4429;DHT22;2227;47.810;8.810;2022-07-06T09:49:20;25.80;74.50
4429;DHT22;2227;47.810;8.810;2022-07-06T09:51:49;25.80;72.90
4429;DHT22;2227;47.810;8.810;2022-07-06T09:54:17;25.80;73.10
4429;DHT22;2227;47.810;8.810;2022-07-06T09:56:46;25.90;72.40
4429;DHT22;2227;47.810;8.810;2022-07-06T09:59:19;25.90;71.90
4429;DHT22;2227;47.810;8.810;2022-07-06T10:01:51;25.90;71.40
4429;DHT22;2227;47.810;8.810;2022-07-06T10:04:18;26.00;69.40
4429;DHT22;2227;47.810;8.810;2022-07-06T10:06:47;26.10;69.50
4429;DHT22;2227;47.810;8.810;2022-07-06T10:09:15;26.10;69.00
4429;DHT22;2227;47.810;8.810;2022-07-06T10:11:53;26.40;68.50
4429;DHT22;2227;47.810;8.810;2022-07-06T10:14:25;26.50;67.80
4429;DHT22;2227;47.810;8.810;2022-07-06T10:16:52;26.60;67.90
4429;DHT22;2227;47.810;8.810;2022-07-06T10:19:20;26.80;67.50
4429;DHT22;2227;47.810;8.810;2022-07-06T10:21:48;26.80;65.90
4429;DHT22;2227;47.810;8.810;2022-07-06T10:24:16;26.80;66.40
4429;DHT22;2227;47.810;8.810;2022-07-06T10:26:45;27.00;66.90
4429;DHT22;2227;47.810;8.810;2022-07-06T10:29:13;27.20;66.50
4429;DHT22;2227;47.810;8.810;2022-07-06T10:31:43;27.50;66.50
4429;DHT22;2227;47.810;8.810;2022-07-06T10:34:14;27.80;63.10
4429;DHT22;2227;47.810;8.810;2022-07-06T10:36:42;27.90;64.60
4429;DHT22;2227;47.810;8.810;2022-07-06T10:39:10;28.00;63.20
4429;DHT22;2227;47.810;8.810;2022-07-06T10:41:56;28.40;62.60
4429;DHT22;2227;47.810;8.810;2022-07-06T10:44:25;28.80;61.20
4429;DHT22;2227;47.810;8.810;2022-07-06T10:46:54;29.10;60.30
4429;DHT22;2227;47.810;8.810;2022-07-06T10:49:23;29.00;60.30
4429;DHT22;2227;47.810;8.810;2022-07-06T10:52:10;29.00;60.00
4429;DHT22;2227;47.810;8.810;2022-07-06T10:54:39;29.20;58.80
4429;DHT22;2227;47.810;8.810;2022-07-06T10:57:13;29.30;58.90
4429;DHT22;2227;47.810;8.810;2022-07-06T11:00:00;29.30;58.00
4429;DHT22;2227;47.810;8.810;2022-07-06T11:02:38;29.30;58.70
4429;DHT22;2227;47.810;8.810;2022-07-06T11:05:11;29.30;58.10
4429;DHT22;2227;47.810;8.810;2022-07-06T11:07:51;29.30;55.90
4429;DHT22;2227;47.810;8.810;2022-07-06T11:10:17;29.00;56.00
4429;DHT22;2227;47.810;8.810;2022-07-06T11:12:45;28.70;56.90
4429;DHT22;2227;47.810;8.810;2022-07-06T11:15:11;28.50;58.30
4429;DHT22;2227;47.810;8.810;2022-07-06T11:17:38;28.80;57.50
4429;DHT22;2227;47.810;8.810;2022-07-06T11:20:10;29.20;57.70
4429;DHT22;2227;47.810;8.810;2022-07-06T11:22:38;29.50;56.30
4429;DHT22;2227;47.810;8.810;2022-07-06T11:25:06;29.80;55.70
4429;DHT22;2227;47.810;8.810;2022-07-06T11:27:36;30.00;54.20
4429;DHT22;2227;47.810;8.810;2022-07-06T11:30:04;30.20;53.50
4429;DHT22;2227;47.810;8.810;2022-07-06T11:32:35;30.50;52.70
4429;DHT22;2227;47.810;8.810;2022-07-06T11:35:02;30.50;53.70
4429;DHT22;2227;47.810;8.810;2022-07-06T11:37:29;30.50;52.90
4429;DHT22;2227;47.810;8.810;2022-07-06T11:39:56;30.40;52.90
4429;DHT22;2227;47.810;8.810;2022-07-06T11:42:23;30.60;52.30
4429;DHT22;2227;47.810;8.810;2022-07-06T11:44:50;30.70;50.90
4429;DHT22;2227;47.810;8.810;2022-07-06T11:47:16;30.30;52.10
4429;DHT22;2227;47.810;8.810;2022-07-06T11:49:50;30.00;50.40
4429;DHT22;2227;47.810;8.810;2022-07-06T11:52:18;29.80;51.50
4429;DHT22;2227;47.810;8.810;2022-07-06T11:54:45;29.30;51.80
4429;DHT22;2227;47.810;8.810;2022-07-06T11:57:12;29.30;52.80
4429;DHT22;2227;47.810;8.810;2022-07-06T11:59:40;29.60;51.80
4429;DHT22;2227;47.810;8.810;2022-07-06T12:02:09;29.90;51.80
4429;DHT22;2227;47.810;8.810;2022-07-06T12:04:41;30.10;51.20
4429;DHT22;2227;47.810;8.810;2022-07-06T12:07:14;30.10;50.00
4429;DHT22;2227;47.810;8.810;2022-07-06T12:09:43;30.20;50.80
4429;DHT22;2227;47.810;8.810;2022-07-06T12:12:11;30.30;51.80
4429;DHT22;2227;47.810;8.810;2022-07-06T12:14:39;30.40;52.50
4429;DHT22;2227;47.810;8.810;2022-07-06T12:17:13;30.20;53.50
4429;DHT22;2227;47.810;8.810;2022-07-06T12:19:41;30.40;52.60
4429;DHT22;2227;47.810;8.810;2022-07-06T12:22:10;30.40;52.40
4429;DHT22;2227;47.810;8.810;2022-07-06T12:24:37;30.60;51.40
4429;DHT22;2227;47.810;8.810;2022-07-06T12:27:20;30.60;51.50
4429;DHT22;2227;47.810;8.810;2022-07-06T12:29:47;30.40;50.70
4429;DHT22;2227;47.810;8.810;2022-07-06T12:32:20;30.40;50.50
4429;DHT22;2227;47.810;8.810;2022-07-06T12:35:05;30.30;50.60
4429;DHT22;2227;47.810;8.810;2022-07-06T12:37:33;30.20;51.00
4429;DHT22;2227;47.810;8.810;2022-07-06T12:40:00;30.10;52.00
4429;DHT22;2227;47.810;8.810;2022-07-06T12:42:27;29.90;52.40
4429;DHT22;2227;47.810;8.810;2022-07-06T12:44:55;29.90;52.80
4429;DHT22;2227;47.810;8.810;2022-07-06T12:47:23;30.20;51.50
4429;DHT22;2227;47.810;8.810;2022-07-06T12:50:05;30.40;49.10
4429;DHT22;2227;47.810;8.810;2022-07-06T12:52:34;30.30;50.00
4429;DHT22;2227;47.810;8.810;2022-07-06T12:55:02;29.40;49.70
4429;DHT22;2227;47.810;8.810;2022-07-06T12:57:44;29.00;51.30
4429;DHT22;2227;47.810;8.810;2022-07-06T13:00:11;28.90;52.70
4429;DHT22;2227;47.810;8.810;2022-07-06T13:02:38;29.00;52.30
4429;DHT22;2227;47.810;8.810;2022-07-06T13:05:26;29.10;52.30
4429;DHT22;2227;47.810;8.810;2022-07-06T13:07:55;29.50;52.20
4429;DHT22;2227;47.810;8.810;2022-07-06T13:10:23;29.40;51.70
4429;DHT22;2227;47.810;8.810;2022-07-06T13:12:50;29.10;52.80
4429;DHT22;2227;47.810;8.810;2022-07-06T13:15:17;28.60;52.90
4429;DHT22;2227;47.810;8.810;2022-07-06T13:17:44;28.70;52.80
4429;DHT22;2227;47.810;8.810;2022-07-06T13:20:13;28.90;51.50
4429;DHT22;2227;47.810;8.810;2022-07-06T13:22:40;28.90;51.70
4429;DHT22;2227;47.810;8.810;2022-07-06T13:25:07;28.80;52.30
4429;DHT22;2227;47.810;8.810;2022-07-06T13:27:35;28.90;52.20
4429;DHT22;2227;47.810;8.810;2022-07-06T13:30:02;29.10;51.40
4429;DHT22;2227;47.810;8.810;2022-07-06T13:32:29;29.20;51.60
4429;DHT22;2227;47.810;8.810;2022-07-06T13:34:56;29.00;53.60
4429;DHT22;2227;47.810;8.810;2022-07-06T13:37:23;28.90;54.70
4429;DHT22;2227;47.810;8.810;2022-07-06T13:39:50;28.80;55.90
4429;DHT22;2227;47.810;8.810;2022-07-06T13:42:17;28.30;54.50
4429;DHT22;2227;47.810;8.810;2022-07-06T13:44:44;27.70;55.20
4429;DHT22;2227;47.810;8.810;2022-07-06T13:47:10;27.30;57.30
4429;DHT22;2227;47.810;8.810;2022-07-06T13:49:37;27.40;58.40
4429;DHT22;2227;47.810;8.810;2022-07-06T13:52:05;28.00;56.00
4429;DHT22;2227;47.810;8.810;2022-07-06T13:54:32;28.50;53.20
4429;DHT22;2227;47.810;8.810;2022-07-06T13:57:03;28.60;52.70
4429;DHT22;2227;47.810;8.810;2022-07-06T13:59:31;29.00;52.60
4429;DHT22;2227;47.810;8.810;2022-07-06T14:01:59;29.70;52.00
4429;DHT22;2227;47.810;8.810;2022-07-06T14:04:26;30.00;51.10
4429;DHT22;2227;47.810;8.810;2022-07-06T14:06:53;30.50;51.80
4429;DHT22;2227;47.810;8.810;2022-07-06T14:09:20;30.60;49.40
4429;DHT22;2227;47.810;8.810;2022-07-06T14:11:47;30.00;50.10
4429;DHT22;2227;47.810;8.810;2022-07-06T14:14:13;29.70;50.90
4429;DHT22;2227;47.810;8.810;2022-07-06T14:16:40;29.70;51.10
4429;DHT22;2227;47.810;8.810;2022-07-06T14:19:08;29.60;51.50
4429;DHT22;2227;47.810;8.810;2022-07-06T14:21:35;29.40;52.10
4429;DHT22;2227;47.810;8.810;2022-07-06T14:24:02;29.60;52.10
4429;DHT22;2227;47.810;8.810;2022-07-06T14:26:29;29.80;51.30
4429;DHT22;2227;47.810;8.810;2022-07-06T14:28:56;30.40;51.70
4429;DHT22;2227;47.810;8.810;2022-07-06T14:31:23;30.90;50.10
4429;DHT22;2227;47.810;8.810;2022-07-06T14:33:50;31.30;49.00
4429;DHT22;2227;47.810;8.810;2022-07-06T14:36:18;31.50;48.20
4429;DHT22;2227;47.810;8.810;2022-07-06T14:38:45;31.50;47.40
4429;DHT22;2227;47.810;8.810;2022-07-06T14:41:12;31.70;47.50
4429;DHT22;2227;47.810;8.810;2022-07-06T14:43:39;31.70;46.60
4429;DHT22;2227;47.810;8.810;2022-07-06T14:46:06;31.60;47.00
4429;DHT22;2227;47.810;8.810;2022-07-06T14:48:34;31.30;47.00
4429;DHT22;2227;47.810;8.810;2022-07-06T14:51:01;31.10;47.90
4429;DHT22;2227;47.810;8.810;2022-07-06T14:53:27;30.90;48.80
4429;DHT22;2227;47.810;8.810;2022-07-06T14:55:55;30.70;49.70
4429;DHT22;2227;47.810;8.810;2022-07-06T14:58:22;30.60;49.60
4429;DHT22;2227;47.810;8.810;2022-07-06T15:00:50;30.40;48.70
4429;DHT22;2227;47.810;8.810;2022-07-06T15:03:25;30.20;49.50
4429;DHT22;2227;47.810;8.810;2022-07-06T15:05:53;30.10;48.60
4429;DHT22;2227;47.810;8.810;2022-07-06T15:08:20;30.00;48.90
4429;DHT22;2227;47.810;8.810;2022-07-06T15:10:48;30.00;48.50
4429;DHT22;2227;47.810;8.810;2022-07-06T15:13:16;30.10;50.30
4429;DHT22;2227;47.810;8.810;2022-07-06T15:15:43;30.30;49.60
4429;DHT22;2227;47.810;8.810;2022-07-06T15:18:23;30.60;48.70
4429;DHT22;2227;47.810;8.810;2022-07-06T15:20:50;30.90;47.60
4429;DHT22;2227;47.810;8.810;2022-07-06T15:23:18;31.20;47.90
4429;DHT22;2227;47.810;8.810;2022-07-06T15:25:45;31.40;48.70
4429;DHT22;2227;47.810;8.810;2022-07-06T15:28:21;31.70;48.60
4429;DHT22;2227;47.810;8.810;2022-07-06T15:30:48;31.80;48.40
4429;DHT22;2227;47.810;8.810;2022-07-06T15:33:14;31.80;47.40
4429;DHT22;2227;47.810;8.810;2022-07-06T15:35:41;31.70;46.80
4429;DHT22;2227;47.810;8.810;2022-07-06T15:38:08;31.40;47.90
4429;DHT22;2227;47.810;8.810;2022-07-06T15:40:35;31.00;48.30
4429;DHT22;2227;47.810;8.810;2022-07-06T15:43:07;30.80;49.20
4429;DHT22;2227;47.810;8.810;2022-07-06T15:45:34;30.60;48.90
4429;DHT22;2227;47.810;8.810;2022-07-06T15:48:04;30.40;49.40
4429;DHT22;2227;47.810;8.810;2022-07-06T15:50:31;30.20;48.80
4429;DHT22;2227;47.810;8.810;2022-07-06T15:52:57;29.80;49.80
4429;DHT22;2227;47.810;8.810;2022-07-06T15:55:24;29.60;51.10
4429;DHT22;2227;47.810;8.810;2022-07-06T15:57:53;29.50;50.90
4429;DHT22;2227;47.810;8.810;2022-07-06T16:00:20;29.40;50.50
4429;DHT22;2227;47.810;8.810;2022-07-06T16:02:47;29.30;50.20
4429;DHT22;2227;47.810;8.810;2022-07-06T16:05:14;29.30;50.20
4429;DHT22;2227;47.810;8.810;2022-07-06T16:07:41;29.20;50.50
4429;DHT22;2227;47.810;8.810;2022-07-06T16:10:30;29.20;51.10
4429;DHT22;2227;47.810;8.810;2022-07-06T16:12:57;29.20;50.10
4429;DHT22;2227;47.810;8.810;2022-07-06T16:15:24;29.10;49.60
4429;DHT22;2227;47.810;8.810;2022-07-06T16:17:51;29.00;49.80
4429;DHT22;2227;47.810;8.810;2022-07-06T16:20:18;28.90;50.30
4429;DHT22;2227;47.810;8.810;2022-07-06T16:22:45;29.00;49.40
4429;DHT22;2227;47.810;8.810;2022-07-06T16:25:15;29.00;50.90
4429;DHT22;2227;47.810;8.810;2022-07-06T16:27:43;29.00;49.20
4429;DHT22;2227;47.810;8.810;2022-07-06T16:30:11;29.10;48.80
4429;DHT22;2227;47.810;8.810;2022-07-06T16:32:47;29.20;50.10
4429;DHT22;2227;47.810;8.810;2022-07-06T16:35:14;29.40;49.70
4429;DHT22;2227;47.810;8.810;2022-07-06T16:37:41;29.50;50.20
4429;DHT22;2227;47.810;8.810;2022-07-06T16:40:08;29.50;49.60
4429;DHT22;2227;47.810;8.810;2022-07-06T16:42:36;29.50;49.30
4429;DHT22;2227;47.810;8.810;2022-07-06T16:45:03;29.50;49.40
4429;DHT22;2227;47.810;8.810;2022-07-06T16:47:30;29.50;49.70
4429;DHT22;2227;47.810;8.810;2022-07-06T16:49:57;29.40;49.90
4429;DHT22;2227;47.810;8.810;2022-07-06T16:52:27;29.50;49.30
4429;DHT22;2227;47.810;8.810;2022-07-06T16:54:55;29.40;49.80
4429;DHT22;2227;47.810;8.810;2022-07-06T16:57:22;29.40;50.00
4429;DHT22;2227;47.810;8.810;2022-07-06T16:59:49;29.30;49.40
4429;DHT22;2227;47.810;8.810;2022-07-06T17:02:16;29.10;49.70
4429;DHT22;2227;47.810;8.810;2022-07-06T17:04:44;28.90;50.60
4429;DHT22;2227;47.810;8.810;2022-07-06T17:07:12;28.60;50.70
4429;DHT22;2227;47.810;8.810;2022-07-06T17:09:39;28.60;51.10
4429;DHT22;2227;47.810;8.810;2022-07-06T17:12:06;28.40;51.20
4429;DHT22;2227;47.810;8.810;2022-07-06T17:14:34;28.20;51.80
4429;DHT22;2227;47.810;8.810;2022-07-06T17:17:01;28.00;51.70
4429;DHT22;2227;47.810;8.810;2022-07-06T17:19:28;27.80;51.90
4429;DHT22;2227;47.810;8.810;2022-07-06T17:21:55;27.80;52.10
4429;DHT22;2227;47.810;8.810;2022-07-06T17:24:30;27.50;52.30
4429;DHT22;2227;47.810;8.810;2022-07-06T17:26:58;27.40;53.00
4429;DHT22;2227;47.810;8.810;2022-07-06T17:29:25;27.20;53.00
4429;DHT22;2227;47.810;8.810;2022-07-06T17:31:53;27.20;53.70
4429;DHT22;2227;47.810;8.810;2022-07-06T17:34:20;27.00;53.50
4429;DHT22;2227;47.810;8.810;2022-07-06T17:36:47;26.90;54.40
4429;DHT22;2227;47.810;8.810;2022-07-06T17:39:14;26.80;54.40
4429;DHT22;2227;47.810;8.810;2022-07-06T17:41:41;26.70;54.90
4429;DHT22;2227;47.810;8.810;2022-07-06T17:44:08;26.50;55.20
4429;DHT22;2227;47.810;8.810;2022-07-06T17:46:35;26.40;55.40
4429;DHT22;2227;47.810;8.810;2022-07-06T17:49:02;26.20;55.80
4429;DHT22;2227;47.810;8.810;2022-07-06T17:51:31;26.10;56.10
4429;DHT22;2227;47.810;8.810;2022-07-06T17:53:58;25.90;56.30
4429;DHT22;2227;47.810;8.810;2022-07-06T17:56:24;25.80;56.30
4429;DHT22;2227;47.810;8.810;2022-07-06T17:58:54;25.80;56.60
4429;DHT22;2227;47.810;8.810;2022-07-06T18:01:21;25.70;56.60
4429;DHT22;2227;47.810;8.810;2022-07-06T18:03:48;25.70;57.40
4429;DHT22;2227;47.810;8.810;2022-07-06T18:06:15;25.60;56.90
4429;DHT22;2227;47.810;8.810;2022-07-06T18:08:41;25.60;57.00
4429;DHT22;2227;47.810;8.810;2022-07-06T18:11:10;25.60;57.60
4429;DHT22;2227;47.810;8.810;2022-07-06T18:13:38;25.60;57.40
4429;DHT22;2227;47.810;8.810;2022-07-06T18:16:05;25.50;57.70
4429;DHT22;2227;47.810;8.810;2022-07-06T18:18:34;25.50;57.90
4429;DHT22;2227;47.810;8.810;2022-07-06T18:21:01;25.50;58.30
4429;DHT22;2227;47.810;8.810;2022-07-06T18:23:28;25.60;58.40
4429;DHT22;2227;47.810;8.810;2022-07-06T18:25:57;25.50;57.90
4429;DHT22;2227;47.810;8.810;2022-07-06T18:28:24;25.40;57.90
4429;DHT22;2227;47.810;8.810;2022-07-06T18:30:51;25.30;57.90
4429;DHT22;2227;47.810;8.810;2022-07-06T18:33:20;25.20;58.20
4429;DHT22;2227;47.810;8.810;2022-07-06T18:35:51;25.20;58.20
4429;DHT22;2227;47.810;8.810;2022-07-06T18:38:20;25.10;58.70
4429;DHT22;2227;47.810;8.810;2022-07-06T18:40:48;25.00;58.50
4429;DHT22;2227;47.810;8.810;2022-07-06T18:43:15;24.90;59.60
4429;DHT22;2227;47.810;8.810;2022-07-06T18:45:43;24.70;59.20
4429;DHT22;2227;47.810;8.810;2022-07-06T18:48:10;24.60;60.20
4429;DHT22;2227;47.810;8.810;2022-07-06T18:50:42;24.50;60.00
4429;DHT22;2227;47.810;8.810;2022-07-06T18:53:09;24.30;60.10
4429;DHT22;2227;47.810;8.810;2022-07-06T18:55:36;24.20;60.00
4429;DHT22;2227;47.810;8.810;2022-07-06T18:58:03;24.00;59.90
4429;DHT22;2227;47.810;8.810;2022-07-06T19:00:30;23.90;60.60
4429;DHT22;2227;47.810;8.810;2022-07-06T19:02:57;23.80;60.40
4429;DHT22;2227;47.810;8.810;2022-07-06T19:05:25;23.70;60.40
4429;DHT22;2227;47.810;8.810;2022-07-06T19:07:52;23.60;61.20
4429;DHT22;2227;47.810;8.810;2022-07-06T19:10:18;23.60;61.10
4429;DHT22;2227;47.810;8.810;2022-07-06T19:12:46;23.50;61.70
4429;DHT22;2227;47.810;8.810;2022-07-06T19:15:13;23.50;61.70
4429;DHT22;2227;47.810;8.810;2022-07-06T19:17:40;23.40;61.90
4429;DHT22;2227;47.810;8.810;2022-07-06T19:20:09;23.20;62.80
4429;DHT22;2227;47.810;8.810;2022-07-06T19:22:39;23.00;64.20
4429;DHT22;2227;47.810;8.810;2022-07-06T19:25:08;22.70;65.30
4429;DHT22;2227;47.810;8.810;2022-07-06T19:27:35;22.50;65.70
4429;DHT22;2227;47.810;8.810;2022-07-06T19:30:04;22.20;66.00
4429;DHT22;2227;47.810;8.810;2022-07-06T19:32:32;22.00;66.70
4429;DHT22;2227;47.810;8.810;2022-07-06T19:34:59;22.10;66.30
4429;DHT22;2227;47.810;8.810;2022-07-06T19:37:26;21.90;65.50
4429;DHT22;2227;47.810;8.810;2022-07-06T19:39:53;21.80;65.50
4429;DHT22;2227;47.810;8.810;2022-07-06T19:42:20;21.80;65.20
4429;DHT22;2227;47.810;8.810;2022-07-06T19:44:47;21.80;65.50
4429;DHT22;2227;47.810;8.810;2022-07-06T19:47:14;21.90;65.30
4429;DHT22;2227;47.810;8.810;2022-07-06T19:49:41;22.00;65.10
4429;DHT22;2227;47.810;8.810;2022-07-06T19:52:08;22.00;64.20
4429;DHT22;2227;47.810;8.810;2022-07-06T19:54:35;22.00;64.70
4429;DHT22;2227;47.810;8.810;2022-07-06T19:57:01;22.00;64.70
4429;DHT22;2227;47.810;8.810;2022-07-06T19:59:31;22.00;64.40
4429;DHT22;2227;47.810;8.810;2022-07-06T20:01:58;21.90;63.60
4429;DHT22;2227;47.810;8.810;2022-07-06T20:04:25;21.80;64.00
4429;DHT22;2227;47.810;8.810;2022-07-06T20:06:53;21.70;64.60